createdAt,value
2018-10-18T00:03:13.019Z,16.07
2018-10-18T00:13:16.787Z,16.43
2018-10-18T00:23:20.270Z,16.00
2018-10-18T00:33:23.702Z,14.30
2018-10-18T00:43:27.100Z,15.47
2018-10-18T00:53:31.274Z,16.00
2018-10-18T01:03:35.640Z,17.53
2018-10-18T01:13:39.003Z,17.87
2018-10-18T01:23:42.352Z,15.90
2018-10-18T01:33:45.887Z,16.57
2018-10-18T01:43:49.247Z,16.07
2018-10-18T01:54:05.968Z,17.47
2018-10-18T02:04:09.414Z,18.10
2018-10-18T02:14:12.820Z,17.87
2018-10-18T02:24:20.460Z,16.00
2018-10-18T02:34:28.268Z,15.17
2018-10-18T02:44:31.626Z,15.50
2018-10-18T02:54:35.060Z,15.97
2018-10-18T03:04:38.944Z,14.93
2018-10-18T03:14:46.155Z,14.33
2018-10-18T03:24:49.519Z,14.03
2018-10-18T03:34:53.101Z,14.67
2018-10-18T03:44:56.561Z,13.80
2018-10-18T03:55:00.464Z,14.40
2018-10-18T04:05:04.043Z,13.37
2018-10-18T04:15:07.447Z,13.17
2018-10-18T04:25:10.880Z,14.93
2018-10-18T04:35:14.266Z,14.87
2018-10-18T04:45:17.644Z,13.73
2018-10-18T04:55:21.001Z,13.93
2018-10-18T05:05:29.965Z,13.97
2018-10-18T05:15:33.509Z,13.77
2018-10-18T05:25:37.073Z,15.93
2018-10-18T05:35:40.303Z,16.00
2018-10-18T05:45:43.680Z,16.97
2018-10-18T05:55:47.192Z,16.40
2018-10-18T06:05:50.592Z,17.53
2018-10-18T06:15:54.709Z,14.30
2018-10-18T06:25:59.323Z,14.20
2018-10-18T06:36:02.720Z,15.93
2018-10-18T06:46:07.108Z,16.87
2018-10-18T06:56:10.463Z,16.27
2018-10-18T07:06:14.930Z,19.27
2018-10-18T07:16:18.243Z,19.40
2018-10-18T07:26:21.814Z,20.10
2018-10-18T07:36:25.173Z,18.13
2018-10-18T07:46:28.609Z,16.80
2018-10-18T08:07:35.332Z,18.00
2018-10-18T08:17:43.127Z,15.47
2018-10-18T08:27:46.484Z,16.30
2018-10-18T08:37:50.019Z,15.30
2018-10-18T08:47:53.298Z,14.77
2018-10-18T08:57:56.663Z,14.80
2018-10-18T09:08:00.431Z,15.30
2018-10-18T09:18:07.872Z,14.70
2018-10-18T09:28:11.232Z,11.83
2018-10-18T09:38:15.405Z,13.87
2018-10-18T09:48:18.787Z,11.33
2018-10-18T09:58:22.164Z,11.17
2018-10-18T10:08:25.580Z,12.20
2018-10-18T10:18:29.320Z,10.83
2018-10-18T10:28:32.933Z,9.00
2018-10-18T10:38:40.888Z,10.73
2018-10-18T10:48:44.240Z,6.83
2018-10-18T10:58:47.607Z,6.00
2018-10-18T11:08:51.029Z,6.23
2018-10-18T11:18:55.248Z,3.60
2018-10-18T11:28:58.621Z,3.70
2018-10-18T11:39:02.352Z,6.03
2018-10-18T11:49:06.895Z,7.33
2018-10-18T11:59:10.311Z,9.87
2018-10-18T12:09:13.622Z,11.00
2018-10-18T12:19:17.848Z,11.60
2018-10-18T12:29:21.207Z,11.10
2018-10-18T12:39:24.661Z,10.23
2018-10-18T12:49:27.991Z,8.90
2018-10-18T12:59:32.040Z,9.57
2018-10-18T13:09:43.291Z,8.17
2018-10-18T13:19:46.723Z,8.60
2018-10-18T13:29:50.219Z,7.93
2018-10-18T13:39:53.641Z,6.97
2018-10-18T13:49:56.998Z,6.27
2018-10-18T14:00:20.627Z,5.63
2018-10-18T14:10:24.401Z,5.80
2018-10-18T14:20:28.216Z,5.70
2018-10-18T14:30:36.100Z,4.80
2018-10-18T14:40:39.599Z,3.60
2018-10-18T14:50:43.205Z,5.67
2018-10-18T15:00:46.534Z,5.40
2018-10-18T15:10:49.885Z,3.77
2018-10-18T15:20:53.262Z,3.87
2018-10-18T15:30:56.801Z,4.10
2018-10-18T15:41:00.922Z,4.33
2018-10-18T15:51:11.682Z,4.33
2018-10-18T16:01:15.249Z,4.33
2018-10-18T16:11:18.652Z,5.47
2018-10-18T16:21:22.090Z,4.67
2018-10-18T16:31:25.480Z,5.30
2018-10-18T16:41:28.963Z,5.67
2018-10-18T16:51:32.227Z,5.17
2018-10-18T17:01:36.643Z,5.93
2018-10-18T17:11:40.238Z,5.93
2018-10-18T17:21:43.606Z,6.60
2018-10-18T17:42:30.700Z,6.83
2018-10-18T17:52:34.707Z,6.90
2018-10-18T18:02:38.879Z,6.83
2018-10-18T18:12:42.592Z,6.97
2018-10-18T18:22:46.553Z,8.67
2018-10-18T18:32:50.033Z,7.23
2018-10-18T18:42:53.428Z,6.93
2018-10-18T18:52:56.926Z,7.07
2018-10-18T19:03:00.242Z,6.80
2018-10-18T19:13:03.716Z,6.20
2018-10-18T19:23:07.652Z,5.47
2018-10-18T19:33:16.928Z,5.17
2018-10-18T19:43:20.352Z,5.47
2018-10-18T19:53:23.761Z,5.00
2018-10-18T20:03:27.146Z,4.40
2018-10-18T20:13:30.536Z,4.70
2018-10-18T20:23:33.977Z,3.50
2018-10-18T20:33:37.377Z,4.07
2018-10-18T20:43:40.740Z,3.90
2018-10-18T20:53:44.127Z,3.93
2018-10-18T21:03:47.955Z,4.47
2018-10-18T21:13:51.308Z,4.07
2018-10-18T21:23:54.901Z,4.53
2018-10-18T21:33:58.257Z,4.87
2018-10-18T21:44:01.631Z,5.77
2018-10-18T21:54:05.420Z,6.23
2018-10-18T22:04:08.996Z,6.13
2018-10-18T22:14:12.527Z,7.75
2018-10-18T22:24:15.916Z,6.63
2018-10-18T22:34:19.314Z,6.40
2018-10-18T22:44:22.773Z,5.20
2018-10-18T22:54:26.949Z,6.70
2018-10-18T23:04:30.404Z,6.50
2018-10-18T23:14:34.513Z,4.27
2018-10-18T23:24:39.508Z,4.77
2018-10-18T23:34:43.152Z,5.23
2018-10-18T23:44:47.028Z,4.93
2018-10-18T23:54:50.478Z,5.30
